Terminal Aerodrome Forecast
Issued by NWS

Home | Current Version | Previous Version | Text Only | Print | Product List | Glossary On
Versions: 1 2 3 4 5 6 7 8 9 10 11
000
FTUS42 TJSJ 252300 RRA
TAFJMZ
TAF
TJMZ 252341Z 2600/2624 08006KT P6SM FEW040
     FM261530 10008KT P6SM VCSH FEW025 SCT040
     FM262200 07006KT P6SM SCT040
      AMD NOT SKED TIL 261500=

USA.gov is the U.S. government's official web portal to all federal, state and local government web resources and services.